M I D A S
Marine Information and Data Acquisition System
Tripno 718 of the Zeeleeuw from 2004-05-17 06:24:55 to 2004-05-17 15:07:46
Back to CruiseResearch ActivitiesStationsMapUnderway DataData graphs

EquipmentUnitsComment
TimeDGPSUTC
LatitudeDGPSDM.mWGS84
LongitudeDGPSDM.mWGS84
HeadingGyrodeg 
SOGDGPSknotsSpeed over ground
COGDGPSdegCourse over ground
DepthEcho soundermeters200 kHz
Missing or incorrect values are displayed as -999
Navigation data collected by the RV Zeeleeuw from 2004-05-17 06:24:55 to 2004-05-17 15:07:46
                                                                                    Next 1000 lines
Time Latitude Longitude Heading SOG COG Depth
2004-05-17 06:25:03 51°13.597 2°56.097 126.1   119 5.6
2004-05-17 06:25:08 51°13.597 2°56.097 125.5   128 5.6
2004-05-17 06:25:13 51°13.597 2°56.097 124.8   160 5.6
2004-05-17 06:25:17 51°13.597 2°56.097 123.9   172 5.6
2004-05-17 06:25:23 51°13.597 2°56.097 123.3 0.1 229 5.5
2004-05-17 06:25:28 51°13.597 2°56.096 122.6 0.1 254 5.6
2004-05-17 06:25:33 51°13.597 2°56.096 122.3 0.3 289 5.6
2004-05-17 06:25:38 51°13.597 2°56.095 122.2 0.4 301 5.6
2004-05-17 06:25:43 51°13.597 2°56.094 122.2 0.6 304 5.7
2004-05-17 06:25:48 51°13.598 2°56.092 122.3 0.6 296 5.8
2004-05-17 06:25:52 51°13.598 2°56.091 122.4 0.6 298 5.8
2004-05-17 06:25:58 51°13.599 2°56.09 122.6 0.7 302 5.9
2004-05-17 06:26:04 51°13.599 2°56.088 122.7 0.7 303 5.9
2004-05-17 06:26:08 51°13.6 2°56.087 122.8 0.8 301 6
2004-05-17 06:26:13 51°13.601 2°56.085 122.9 0.8 301 6.1
2004-05-17 06:26:18 51°13.601 2°56.084 122.9 0.8 304 6.2
2004-05-17 06:26:23 51°13.602 2°56.082 122.9 0.9 303 6.5
2004-05-17 06:26:28 51°13.603 2°56.08 122.9 1 302 6.4
2004-05-17 06:26:33 51°13.603 2°56.078 122.6 1 302 6.6
2004-05-17 06:26:37 51°13.604 2°56.077 122.2 1.1 302 6.5
2004-05-17 06:26:43 51°13.605 2°56.074 121.9 1.3 300 6.9
2004-05-17 06:26:48 51°13.606 2°56.071 121.5 1.4 300 6.5
2004-05-17 06:26:53 51°13.607 2°56.068 121.2 1.6 299 6.6
2004-05-17 06:26:58 51°13.608 2°56.065 121.1 1.7 298 7.1
2004-05-17 06:27:04 51°13.61 2°56.06 121 1.9 298 -999
2004-05-17 06:27:09 51°13.611 2°56.056 121 2 297 -999
2004-05-17 06:27:13 51°13.612 2°56.053 121 2.1 297 -999
2004-05-17 06:27:19 51°13.614 2°56.047 121 2.2 297 -999
2004-05-17 06:27:24 51°13.615 2°56.043 121.1 2.4 296 -999
2004-05-17 06:27:29 51°13.617 2°56.038 121.2 2.4 297 -999
2004-05-17 06:27:33 51°13.618 2°56.034 121.5 2.5 297 -999
2004-05-17 06:27:39 51°13.62 2°56.028 121.7 2.6 297 -999
2004-05-17 06:27:44 51°13.622 2°56.022 121.9 2.7 297 -999
2004-05-17 06:27:49 51°13.624 2°56.017 122.1 2.8 297 -999
2004-05-17 06:27:54 51°13.626 2°56.011 122.2 2.8 298 -999
2004-05-17 06:27:59 51°13.627 2°56.006 122.5 2.8 297 -999
2004-05-17 06:28:04 51°13.629 2°56 122.7 2.9 298 -999
2004-05-17 06:28:09 51°13.631 2°55.994 122.8 2.9 298 -999
2004-05-17 06:28:13 51°13.633 2°55.99 122.9 2.9 298 -999
2004-05-17 06:28:19 51°13.635 2°55.983 122.9 2.9 299 -999
2004-05-17 06:28:24 51°13.637 2°55.977 122.9 3 299 5.1
2004-05-17 06:28:29 51°13.639 2°55.971 122.7 3 299 -999
2004-05-17 06:28:33 51°13.64 2°55.967 122.5 2.8 298 -999
2004-05-17 06:28:39 51°13.643 2°55.96 122 2.8 298 -999
2004-05-17 06:28:44 51°13.644 2°55.954 121.3 3 298 -999
2004-05-17 06:28:49 51°13.646 2°55.948 120.4 3.1 297 -999
2004-05-17 06:28:53 51°13.648 2°55.943 119.7 3.3 297 8.3
2004-05-17 06:28:59 51°13.651 2°55.935 119.3 3.4 296 -999
2004-05-17 06:29:04 51°13.653 2°55.927 118.7 3.7 296 -999
2004-05-17 06:29:09 51°13.655 2°55.919 118.3 3.9 296 -999
2004-05-17 06:29:14 51°13.658 2°55.911 117.7 4.1 295 -999
2004-05-17 06:29:19 51°13.66 2°55.902 117.3 4.2 295 -999
2004-05-17 06:29:24 51°13.663 2°55.893 116.6 4.5 294 -999
2004-05-17 06:29:29 51°13.665 2°55.884 115.9 4.6 293 -999
2004-05-17 06:29:34 51°13.668 2°55.874 114.2 4.9 292 -999
2004-05-17 06:29:39 51°13.67 2°55.863 112.4 4.9 291 -999
2004-05-17 06:29:44 51°13.672 2°55.852 110.2 5.1 287 -999
2004-05-17 06:29:49 51°13.674 2°55.841 108.1 5.2 285 -999
2004-05-17 06:29:53 51°13.675 2°55.832 105.7 5.2 283 -999
2004-05-17 06:29:59 51°13.677 2°55.819 103.6 5.1 281 -999
2004-05-17 06:30:04 51°13.678 2°55.807 101.6 5.3 279 -999
2004-05-17 06:30:09 51°13.679 2°55.796 99.7 5.3 278 -999
2004-05-17 06:30:13 51°13.679 2°55.787 98 5.1 276 -999
2004-05-17 06:30:19 51°13.68 2°55.775 96.4 4.7 276 -999
2004-05-17 06:30:24 51°13.68 2°55.767 95.3 4 275 -999
2004-05-17 06:30:28 51°13.681 2°55.762 93.5 3.2 274 4.7
2004-05-17 06:30:33 51°13.681 2°55.757 90.7 2.4 272 10.9
2004-05-17 06:30:37 51°13.681 2°55.755 87.1 1.8 278 10.9
2004-05-17 06:30:44 51°13.682 2°55.754 82.2 0.6 309 11.1
2004-05-17 06:30:48 51°13.682 2°55.754 76.2 0.5 2 11.4
2004-05-17 06:30:53 51°13.683 2°55.755 69.5 0.8 31 11.8
2004-05-17 06:30:58 51°13.685 2°55.757 62.4 1.1 34 12
2004-05-17 06:31:03 51°13.687 2°55.759 55.3 1.7 33 12.2
2004-05-17 06:31:08 51°13.689 2°55.761 48.6 2.1 33 12
2004-05-17 06:31:13 51°13.693 2°55.764 41.4 2.4 27 12
2004-05-17 06:31:18 51°13.696 2°55.766 33.8 2.7 22 11.9
2004-05-17 06:31:23 51°13.701 2°55.768 26.2 3 15 11.8
2004-05-17 06:31:28 51°13.704 2°55.769 19.4 2.9 10 11.8
2004-05-17 06:31:33 51°13.708 2°55.769 14.1 2.8 7 11.7
2004-05-17 06:31:37 51°13.711 2°55.77 11.3 2.3 6 11.7
2004-05-17 06:31:43 51°13.714 2°55.77 8.7 2.1 6 11.5
2004-05-17 06:31:48 51°13.715 2°55.77 5.1 1.4 3 11.3
2004-05-17 06:31:53 51°13.717 2°55.77 1.8 1.1 3 10.9
2004-05-17 06:31:58 51°13.717 2°55.77 359 0.8 6 10.9
2004-05-17 06:32:03 51°13.718 2°55.771 357 0.3 30 10.8
2004-05-17 06:32:08 51°13.717 2°55.771 356.2 0.2 129 10.8
2004-05-17 06:32:11 51°13.717 2°55.771 355.9 0.4 149 10.7
2004-05-17 06:32:18 51°13.716 2°55.772 356 0.3 147 10.8
2004-05-17 06:32:23 51°13.716 2°55.772 356.3 0.3 147 10.8
2004-05-17 06:32:28 51°13.716 2°55.773 356.4 0.1 125 10.9
2004-05-17 06:32:33 51°13.716 2°55.773 356.3 0.2 24 6.2
2004-05-17 06:32:37 51°13.717 2°55.773 354.4 0.4 3 6.3
2004-05-17 06:32:43 51°13.718 2°55.773 351.9 0.6 351 10.6
2004-05-17 06:32:48 51°13.719 2°55.772 348.3 0.8 344 10.5
2004-05-17 06:32:53 51°13.72 2°55.771 345.6 0.9 342 10.3
2004-05-17 06:32:57 51°13.721 2°55.771 342 1 339 10.1
2004-05-17 06:33:03 51°13.723 2°55.769 338.2 1.2 333 10
2004-05-17 06:33:08 51°13.725 2°55.768 334.4 1.4 331 10
2004-05-17 06:33:13 51°13.727 2°55.766 331.1 1.5 328 9.7
2004-05-17 06:33:19 51°13.729 2°55.763 328.5 1.7 325 9.4
2004-05-17 06:33:23 51°13.731 2°55.761 326.3 1.9 322 9.1
2004-05-17 06:33:28 51°13.733 2°55.758 324.3 2 321 8.8
2004-05-17 06:33:33 51°13.735 2°55.755 322.7 2.1 320 8.4
2004-05-17 06:33:37 51°13.737 2°55.752 321.4 2.2 318 8.1
2004-05-17 06:33:43 51°13.74 2°55.748 320.5 2.4 318 8
2004-05-17 06:33:48 51°13.742 2°55.744 320 2.5 318 7.8
2004-05-17 06:33:53 51°13.745 2°55.74 319.9 2.6 318 7.8
2004-05-17 06:33:58 51°13.748 2°55.736 319.8 2.7 317 7.5
2004-05-17 06:34:04 51°13.751 2°55.731 319.8 2.9 317 7.6
2004-05-17 06:34:08 51°13.754 2°55.727 320 3 318 5.6
2004-05-17 06:34:13 51°13.757 2°55.723 320.3 3 318 7.8
2004-05-17 06:34:18 51°13.76 2°55.718 320.8 3.1 318 5.7
2004-05-17 06:34:23 51°13.763 2°55.713 321.3 3.3 318 7.8
2004-05-17 06:34:28 51°13.767 2°55.708 321.7 3.4 319 5.8
2004-05-17 06:34:33 51°13.771 2°55.703 322.2 3.4 319 7.9
2004-05-17 06:34:38 51°13.774 2°55.698 322.8 3.5 319 7.7
2004-05-17 06:34:43 51°13.778 2°55.693 323.3 3.6 320 5.7
2004-05-17 06:34:48 51°13.782 2°55.688 324.1 3.7 321 7.7
2004-05-17 06:34:53 51°13.786 2°55.683 325.7 3.8 322 7.5
2004-05-17 06:34:57 51°13.79 2°55.679 327.1 3.8 324 7.6
2004-05-17 06:35:04 51°13.796 2°55.672 328.8 3.9 326 7.9
2004-05-17 06:35:08 51°13.8 2°55.668 330.7 3.9 327 8.2
2004-05-17 06:35:13 51°13.804 2°55.664 332.6 4 329 8.4
2004-05-17 06:35:18 51°13.809 2°55.66 334.6 3.9 332 8.5
2004-05-17 06:35:23 51°13.814 2°55.656 336 3.8 332 8.4
2004-05-17 06:35:28 51°13.818 2°55.652 337.5 3.8 333 8.4
2004-05-17 06:35:33 51°13.823 2°55.649 338.2 3.7 334 8.6
2004-05-17 06:35:37 51°13.827 2°55.646 338.9 3.7 336 8.5
2004-05-17 06:35:43 51°13.832 2°55.642 339.8 3.6 336 8.5
2004-05-17 06:35:48 51°13.837 2°55.639 341.5 3.6 338 8.5
2004-05-17 06:35:54 51°13.843 2°55.637 344.5 3.5 341 8.4
2004-05-17 06:35:57 51°13.845 2°55.635 348.2 3.4 345 8.8
2004-05-17 06:36:03 51°13.851 2°55.634 352 3.3 349 8.2
2004-05-17 06:36:08 51°13.855 2°55.633 355.3 3.3 351 8.1
2004-05-17 06:36:13 51°13.86 2°55.632 359 3.3 355 7.6
2004-05-17 06:36:17 51°13.864 2°55.632 2.5 3.3   5.5
2004-05-17 06:36:23 51°13.87 2°55.632 6.4 3.7 1 7
2004-05-17 06:36:28 51°13.875 2°55.634 11.6 3.9 8 7.3
2004-05-17 06:36:33 51°13.881 2°55.635 15.7 3.9 11 -999
2004-05-17 06:36:37 51°13.885 2°55.636 16.7 3.9 6 7.4
2004-05-17 06:36:43 51°13.891 2°55.637 14.5 3.8 4 5.4
2004-05-17 06:36:48 51°13.896 2°55.637 9.9 3.7   6.7
2004-05-17 06:36:53 51°13.901 2°55.637 6.2 3.6 1 7.7
2004-05-17 06:36:58 51°13.906 2°55.637 3.6 3.5 356 7.7
2004-05-17 06:37:04 51°13.911 2°55.636 1.9 3 356 7.9
2004-05-17 06:37:08 51°13.914 2°55.636 0.6 2.8 356 8.4
2004-05-17 06:37:13 51°13.917 2°55.635 359.6 2.6 356 8.6
2004-05-17 06:37:17 51°13.92 2°55.635 358.5 2.5 353 8.7
2004-05-17 06:37:22 51°13.923 2°55.634 357.7 2.4 352 8.7
2004-05-17 06:37:28 51°13.927 2°55.633 356.4 2.4 351 8.7
2004-05-17 06:37:33 51°13.93 2°55.632 355.4 2.4 352 8.7
2004-05-17 06:37:37 51°13.933 2°55.632 354.1 2.3 349 8.8
2004-05-17 06:37:43 51°13.937 2°55.631 353.1 2.3 349 9.1
2004-05-17 06:37:48 51°13.94 2°55.63 352.2 2.2 347 9.3
2004-05-17 06:37:53 51°13.942 2°55.629 351.3 2 348 9.4
2004-05-17 06:37:57 51°13.944 2°55.628 350.3 1.8 346 9.3
2004-05-17 06:38:03 51°13.947 2°55.627 349.8 1.6 346 9.4
2004-05-17 06:38:08 51°13.948 2°55.626 348.9 1.4 345 9.6
2004-05-17 06:38:13 51°13.95 2°55.626 348.3 1.3 346 9.6
2004-05-17 06:38:19 51°13.952 2°55.625 347.6 1.1 345 9.6
2004-05-17 06:38:23 51°13.953 2°55.625 346.9 1 346 9.7
2004-05-17 06:38:28 51°13.953 2°55.624 346.5 0.7 346 9.8
2004-05-17 06:38:33 51°13.954 2°55.624 346.4 0.6 345 9.9
2004-05-17 06:38:37 51°13.954 2°55.624 346.4 0.4 349 9.9
2004-05-17 06:38:43 51°13.955 2°55.623 346.7 0.2 331 9.9
2004-05-17 06:38:48 51°13.955 2°55.623 346.8 0.1 340 9.9
2004-05-17 06:38:53 51°13.955 2°55.623 347.2 0.1 352 9.9
2004-05-17 06:38:57 51°13.955 2°55.623 347.6 0.1 318 9.9
2004-05-17 06:39:03 51°13.955 2°55.623 348 0.1 326 9.9
2004-05-17 06:39:08 51°13.955 2°55.623 348.3 0.1 329 9.9
2004-05-17 06:39:13 51°13.955 2°55.623 348.5 0.1 331 9.9
2004-05-17 06:39:17 51°13.956 2°55.623 348.5 0.1 326 9.9
2004-05-17 06:39:23 51°13.956 2°55.623 348.5 0.1 333 9.8
2004-05-17 06:39:28 51°13.956 2°55.623 348.4 0.1 339 9.8
2004-05-17 06:39:32 51°13.956 2°55.623 348.3 0.2 334 9.8
2004-05-17 06:39:37 51°13.956 2°55.623 348.1 0.2 7 9.8
2004-05-17 06:39:42 51°13.956 2°55.623 347.8 0.2 12 9.8
2004-05-17 06:39:48 51°13.957 2°55.623 347.7 0.2 5 9.7
2004-05-17 06:39:53 51°13.957 2°55.622 347.7 0.2 351 9.7
2004-05-17 06:39:57 51°13.957 2°55.622 347.7 0.2 334 9.6
2004-05-17 06:40:03 51°13.957 2°55.622 347.7 0.2 346 9.6
2004-05-17 06:40:08 51°13.958 2°55.622 347.8 0.2 357 9.6
2004-05-17 06:40:13 51°13.958 2°55.622 348.1 0.2 358 9.6
2004-05-17 06:40:18 51°13.958 2°55.623 348.4 0.2 349 9.6
2004-05-17 06:40:23 51°13.958 2°55.623 348.7 0.3 158 9.6
2004-05-17 06:40:28 51°13.957 2°55.623 348.7 0.4 163 9.6
2004-05-17 06:40:33 51°13.957 2°55.623 348.8 0.4 153 9.8
2004-05-17 06:40:39 51°13.956 2°55.624 348.9 0.3 159 9.8
2004-05-17 06:40:43 51°13.956 2°55.624 349.1 0.3 155 9.8
2004-05-17 06:40:48 51°13.956 2°55.624 349.5 0.3 159 9.9
2004-05-17 06:40:52 51°13.956 2°55.624 349.8 0.3 154 9.9
2004-05-17 06:40:57 51°13.955 2°55.624 350.1 0.3 195 10
2004-05-17 06:41:04 51°13.955 2°55.625 350.5 0.2 145 9.9
2004-05-17 06:41:08 51°13.954 2°55.625 351 0.3 181 9.8
2004-05-17 06:41:13 51°13.954 2°55.625 351.4 0.4 137 9.7
2004-05-17 06:41:19 51°13.953 2°55.625 351.6 0.3 186 9.7
2004-05-17 06:41:23 51°13.953 2°55.626 352 0.4 165 9.7
2004-05-17 06:41:28 51°13.953 2°55.626 352.4 0.4 176 9.6
2004-05-17 06:41:33 51°13.952 2°55.626 352.9 0.4 150 9.6
2004-05-17 06:41:37 51°13.952 2°55.626 353.3 0.3 185 9.6
2004-05-17 06:41:43 51°13.951 2°55.626 353.8 0.3 171 9.6
2004-05-17 06:41:48 51°13.95 2°55.626 354 0.3 177 9.6
2004-05-17 06:41:53 51°13.95 2°55.626 354.3 0.2 181 9.6
2004-05-17 06:41:57 51°13.95 2°55.626 354.3 0.2 201 9.6
2004-05-17 06:42:04 51°13.95 2°55.626 354.4 0.1 209 9.7
2004-05-17 06:42:08 51°13.95 2°55.626 354.5   229 9.7
2004-05-17 06:42:13 51°13.95 2°55.626 354.5 0.1 32 9.7
2004-05-17 06:42:17 51°13.95 2°55.626 354.2 0.1 310 9.6
2004-05-17 06:42:24 51°13.95 2°55.626 354.1 0.2 334 9.6
2004-05-17 06:42:28 51°13.951 2°55.626 353.7 0.2 341 9.6
2004-05-17 06:42:33 51°13.951 2°55.625 353.4 0.3 351 9.6
2004-05-17 06:42:38 51°13.952 2°55.625 352.9 0.3 343 9.6
2004-05-17 06:42:43 51°13.952 2°55.625 352.5 0.4 337 9.7
2004-05-17 06:42:48 51°13.953 2°55.625 351.9 0.4 341 9.7
2004-05-17 06:42:53 51°13.953 2°55.625 351.6 0.4 349 9.7
2004-05-17 06:42:57 51°13.954 2°55.624 351 0.4 339 9.7
2004-05-17 06:43:03 51°13.954 2°55.624 350.8 0.4 337 9.9
2004-05-17 06:43:08 51°13.955 2°55.624 350.4 0.4 340 9.9
2004-05-17 06:43:12 51°13.955 2°55.623 350 0.4 345 9.9
2004-05-17 06:43:18 51°13.956 2°55.623 349.7 0.4 335 9.9
2004-05-17 06:43:23 51°13.956 2°55.623 349.3 0.4 336 9.8
2004-05-17 06:43:28 51°13.957 2°55.622 348.9 0.4 339 9.7
2004-05-17 06:43:33 51°13.957 2°55.622 348.7 0.4 341 9.8
2004-05-17 06:43:37 51°13.958 2°55.622 348.3 0.4 339 9.7
2004-05-17 06:43:43 51°13.959 2°55.621 348 0.5 337 9.6
2004-05-17 06:43:48 51°13.959 2°55.621 347.6 0.5 343 9.6
2004-05-17 06:43:53 51°13.96 2°55.621 347.3 0.5 348 9.6
2004-05-17 06:43:57 51°13.961 2°55.62 346.9 0.5 341 9.6
2004-05-17 06:44:03 51°13.961 2°55.62 346.7 0.5 337 9.6
2004-05-17 06:44:08 51°13.962 2°55.619 346.4 0.5 338 9.6
2004-05-17 06:44:13 51°13.962 2°55.619 346.2 0.5 339 9.6
2004-05-17 06:44:17 51°13.963 2°55.618 345.8 0.5 333 9.6
2004-05-17 06:44:23 51°13.964 2°55.618 345.6 0.5 333 9.7
2004-05-17 06:44:28 51°13.964 2°55.617 345.3 0.5 337 9.8
2004-05-17 06:44:33 51°13.965 2°55.617 345.1 0.5 336 9.7
2004-05-17 06:44:39 51°13.966 2°55.616 344.8 0.5 333 9.7
2004-05-17 06:44:44 51°13.967 2°55.616 344.7 0.6 339 9.7
2004-05-17 06:44:48 51°13.967 2°55.616 344.4 0.6 340 9.7
2004-05-17 06:44:53 51°13.968 2°55.615 344.2 0.6 337 9.7
2004-05-17 06:44:57 51°13.968 2°55.615 344 0.6 335 9.7
2004-05-17 06:45:03 51°13.969 2°55.614 343.8 0.6 335 9.7
2004-05-17 06:45:08 51°13.97 2°55.613 343.6 0.6 336 9.6
2004-05-17 06:45:13 51°13.971 2°55.613 343.5 0.6 334 9.7
2004-05-17 06:45:18 51°13.971 2°55.612 343.4 0.6 333 9.7
2004-05-17 06:45:23 51°13.972 2°55.611 343.4 0.5 330 9.7
2004-05-17 06:45:28 51°13.972 2°55.611 343.4 0.3 334 9.7
2004-05-17 06:45:33 51°13.972 2°55.611 343.4 0.1 330 9.7
2004-05-17 06:45:39 51°13.972 2°55.611 343.4 0.3 169 9.7
2004-05-17 06:45:43 51°13.971 2°55.612 343.4 0.2 164 9.7
2004-05-17 06:45:48 51°13.971 2°55.612 343.6 0.2 172 9.7
2004-05-17 06:45:53 51°13.971 2°55.612 343.9 0.2 165 9.7
2004-05-17 06:45:58 51°13.971 2°55.612 344 0.2 176 9.7
2004-05-17 06:46:03 51°13.97 2°55.612 344.1 0.2 168 9.7
2004-05-17 06:46:08 51°13.97 2°55.612 344.4 0.2 183 9.7
2004-05-17 06:46:13 51°13.97 2°55.612 344.5 0.1 180 9.7
2004-05-17 06:46:18 51°13.97 2°55.612 344.6 0.1 177 9.7
2004-05-17 06:46:24 51°13.97 2°55.612 344.6 0.1 189 9.7
2004-05-17 06:46:28 51°13.969 2°55.612 344.6 0.1 211 9.7
2004-05-17 06:46:33 51°13.969 2°55.611 344.3 0.1 224 9.7
2004-05-17 06:46:38 51°13.969 2°55.611 344 0.1 251 9.7
2004-05-17 06:46:43 51°13.969 2°55.611 343.7 0.1 314 9.7
2004-05-17 06:46:48 51°13.969 2°55.611 343.3 0.1 291 9.7
2004-05-17 06:46:53 51°13.97 2°55.611 343 0.1 327 9.8
2004-05-17 06:46:57 51°13.97 2°55.611 342.7 0.1 351 9.7
2004-05-17 06:47:03 51°13.97 2°55.611 342.4 0.1 321 9.8
2004-05-17 06:47:08 51°13.97 2°55.61 342.1 0.1 328 9.8
2004-05-17 06:47:13 51°13.97 2°55.61 341.8 0.2 342 9.8
2004-05-17 06:47:17 51°13.97 2°55.61 341.6 0.2 330 9.8
2004-05-17 06:47:23 51°13.971 2°55.61 341.3 0.2 325 9.9
2004-05-17 06:47:28 51°13.971 2°55.609 341 0.2 323 9.8
2004-05-17 06:47:33 51°13.971 2°55.609 340.9 0.2 326 9.8
2004-05-17 06:47:38 51°13.971 2°55.608 340.6 0.2 325 9.8
2004-05-17 06:47:43 51°13.971 2°55.608 340.4 0.2 328 9.9
2004-05-17 06:47:48 51°13.972 2°55.608 340 0.3 323 9.9
2004-05-17 06:47:53 51°13.972 2°55.608 339.8 0.3 326 9.9
2004-05-17 06:47:57 51°13.972 2°55.607 339.5 0.3 325 9.9
2004-05-17 06:48:03 51°13.973 2°55.607 339 0.3 351 9.9
2004-05-17 06:48:08 51°13.973 2°55.606 338.4 0.3 322 10
2004-05-17 06:48:13 51°13.974 2°55.606 337.7 0.4 319 10
2004-05-17 06:48:18 51°13.974 2°55.605 337.2 0.5 326 10
2004-05-17 06:48:21 51°13.975 2°55.604 336.2 1.1 328 10
2004-05-17 06:48:28 51°13.977 2°55.602 334.7 1.3 326 9.9
2004-05-17 06:48:33 51°13.979 2°55.6 333.1 1.6 325 9.9
2004-05-17 06:48:39 51°13.982 2°55.597 331.6 1.8 328 9.8
2004-05-17 06:48:43 51°13.984 2°55.595 330.1 2.2 324 9.7
2004-05-17 06:48:48 51°13.987 2°55.591 328.7 2.4 324 9.7
2004-05-17 06:48:53 51°13.99 2°55.587 327.4 2.7 322 9.8
2004-05-17 06:48:58 51°13.993 2°55.583 326.6 3 323 9.8
2004-05-17 06:49:03 51°13.997 2°55.578 326 3.7 321 10
2004-05-17 06:49:08 51°14.002 2°55.572 325.6 4 321 9.8
2004-05-17 06:49:13 51°14.007 2°55.566 325.5 4.3 319 9.6
2004-05-17 06:49:17 51°14.011 2°55.561 325.4 4.7 321 9.9
2004-05-17 06:49:23 51°14.018 2°55.552 325.4 4.9 321 9.6
2004-05-17 06:49:28 51°14.024 2°55.545 325.8 5.4 322 10
2004-05-17 06:49:33 51°14.03 2°55.537 326.6 5.6 322 10
2004-05-17 06:49:37 51°14.035 2°55.53 327.1 5.9 322 10.2
2004-05-17 06:49:43 51°14.043 2°55.52 327.5 6.1 322 10.2
2004-05-17 06:49:48 51°14.051 2°55.511 328.5 6.7 323 10.3
2004-05-17 06:49:53 51°14.059 2°55.502 329.3 7.1 324 10
2004-05-17 06:49:58 51°14.068 2°55.492 330.2 7.6 325 9.9
2004-05-17 06:50:03 51°14.077 2°55.481 330.9 8.1 324 9.9
2004-05-17 06:50:08 51°14.087 2°55.471 330.7 8.3 325 9.8
2004-05-17 06:50:13 51°14.097 2°55.459 330.2 8.6 324 9.9
2004-05-17 06:50:17 51°14.105 2°55.45 330.1 8.8 324 9.9
2004-05-17 06:50:24 51°14.119 2°55.434 330.5 9.2 326 9.9
2004-05-17 06:50:28 51°14.128 2°55.425 331.2 9.3 326 9.9
2004-05-17 06:50:33 51°14.139 2°55.413 332 9.5 327 9.9
2004-05-17 06:50:37 51°14.148 2°55.405 332.8 9.6 327 9.9
2004-05-17 06:50:43 51°14.162 2°55.391 333.3 9.7 327 9.9
2004-05-17 06:50:48 51°14.173 2°55.379 332.8 9.7 326 9.9
2004-05-17 06:50:53 51°14.184 2°55.366 331.6 9.8 326 9.9
2004-05-17 06:50:59 51°14.197 2°55.351 330.2 9.8 324 9.9
2004-05-17 06:51:04 51°14.208 2°55.337 328.5 9.8 322 9.9
2004-05-17 06:51:08 51°14.216 2°55.326 326.7 9.9 320 9.8
2004-05-17 06:51:13 51°14.226 2°55.311 325.3 9.9 319 9.8
2004-05-17 06:51:17 51°14.235 2°55.299 324.3 9.9 318 9.8
2004-05-17 06:51:23 51°14.247 2°55.281 323.1 10 317 9.8
2004-05-17 06:51:28 51°14.257 2°55.266 322.7 10 317 9.8
2004-05-17 06:51:33 51°14.267 2°55.251 322.5 10 316 9.8
2004-05-17 06:51:37 51°14.275 2°55.239 322.4 10 316 9.7
2004-05-17 06:51:43 51°14.288 2°55.221 322.4 10 317 9.7
2004-05-17 06:51:48 51°14.298 2°55.206 322.4 10 317 9.8
2004-05-17 06:51:53 51°14.308 2°55.19 322.4 10.1 317 9.9
2004-05-17 06:51:58 51°14.318 2°55.175 321.5 10.1 315 9.7
2004-05-17 06:52:03 51°14.327 2°55.158 319.9 10.1 313 9.3
2004-05-17 06:52:08 51°14.336 2°55.141 318 10.1 311 9.4
2004-05-17 06:52:13 51°14.346 2°55.124 316.7 10.1 311 9.4
2004-05-17 06:52:18 51°14.354 2°55.107 315.7 10.1 309 9.1
2004-05-17 06:52:23 51°14.363 2°55.09 314.8 10.1 309 9.3
2004-05-17 06:52:28 51°14.372 2°55.072 314 10.2 308 9.5
2004-05-17 06:52:33 51°14.38 2°55.054 313.5 10.2 307 9.6
2004-05-17 06:52:37 51°14.387 2°55.039 312.9 10.3 307 9.7
2004-05-17 06:52:43 51°14.397 2°55.017 312.1 10.3 305 10
2004-05-17 06:52:48 51°14.406 2°54.998 311.5 10.3 304 9.9
2004-05-17 06:52:53 51°14.413 2°54.979 310.6 10.3 304 9.7
2004-05-17 06:52:58 51°14.421 2°54.96 310 10.3 304 10.2
2004-05-17 06:53:03 51°14.429 2°54.941 309.5 10.4 303 9.6
2004-05-17 06:53:08 51°14.439 2°54.924 312.5 10.3 311 9.7
2004-05-17 06:53:13 51°14.449 2°54.908 317.9 10.3 314 9.5
2004-05-17 06:53:18 51°14.459 2°54.893 322.4 10.2 318 9.6
2004-05-17 06:53:23 51°14.47 2°54.878 326.5 10.2 321 9.3
2004-05-17 06:53:28 51°14.482 2°54.865 329.9 10.2 324 9.2
2004-05-17 06:53:33 51°14.493 2°54.852 333.3 10.1 326 9.2
2004-05-17 06:53:38 51°14.505 2°54.841 337.3 10 330 9.1
2004-05-17 06:53:43 51°14.517 2°54.829 340.4 10.1 330 9
2004-05-17 06:53:47 51°14.527 2°54.82 340.7 10.1 329 9.1
2004-05-17 06:53:53 51°14.541 2°54.806 339.4 10.1 328 9
2004-05-17 06:53:57 51°14.551 2°54.796 338.8 10.2 328 8.8
2004-05-17 06:54:03 51°14.565 2°54.781 338.1 10.3 327 8.9
2004-05-17 06:54:08 51°14.577 2°54.769 337.7 10.2 328 8.9
2004-05-17 06:54:13 51°14.589 2°54.758 338.8 10.2 330 8.8
2004-05-17 06:54:17 51°14.599 2°54.75 341.2 10.2 332 8.7
2004-05-17 06:54:23 51°14.615 2°54.74 344.5 10 337 8.7
2004-05-17 06:54:27 51°14.625 2°54.733 347.8 10 339 8.6
2004-05-17 06:54:33 51°14.641 2°54.725 350.7 9.9 341 8.6
2004-05-17 06:54:37 51°14.651 2°54.719 352.3 10 341 8.6
2004-05-17 06:54:43 51°14.667 2°54.711 353.2 9.9 342 8.6
2004-05-17 06:54:47 51°14.677 2°54.706 353.6 9.9 343 8.6
2004-05-17 06:54:53 51°14.693 2°54.698 353.9 9.9 343 8.6
2004-05-17 06:54:57 51°14.704 2°54.693 354 10 343 8.6
2004-05-17 06:55:03 51°14.72 2°54.685 354 10 342 8.7
2004-05-17 06:55:07 51°14.73 2°54.679 353.7 10 342 8.8
2004-05-17 06:55:13 51°14.746 2°54.671 353 10 341 8.6
2004-05-17 06:55:17 51°14.756 2°54.665 352.2 10 340 8.5
2004-05-17 06:55:23 51°14.772 2°54.656 351.4 10 339 8.5
2004-05-17 06:55:28 51°14.784 2°54.648 350.4 10 338 8.4
2004-05-17 06:55:33 51°14.797 2°54.639 349.3 10 337 8.4
2004-05-17 06:55:38 51°14.81 2°54.63 348.2 10.1 336 8.4
2004-05-17 06:55:43 51°14.822 2°54.62 346.9 10.1 334 8.4
2004-05-17 06:55:47 51°14.832 2°54.612 345.6 10.1 333 8.3
2004-05-17 06:55:53 51°14.847 2°54.599 344.7 10.1 332 8.3
2004-05-17 06:55:58 51°14.859 2°54.589 343.9 10.1 332 8.4
2004-05-17 06:56:03 51°14.872 2°54.578 343.3 10.1 331 8.4
2004-05-17 06:56:07 51°14.882 2°54.57 343 10.1 333 8.2
2004-05-17 06:56:13 51°14.897 2°54.558 343.8 10.1 333 8.2
2004-05-17 06:56:18 51°14.909 2°54.548 344.5 10.1 333 8.2
2004-05-17 06:56:23 51°14.921 2°54.537 344.7 10 332 8.2
2004-05-17 06:56:28 51°14.934 2°54.527 344.2 10 333 8
2004-05-17 06:56:33 51°14.946 2°54.518 343.8 10 333 7.9
2004-05-17 06:56:37 51°14.956 2°54.51 345 10 336 7.9
2004-05-17 06:56:43 51°14.971 2°54.5 346.9 9.9 336 5.6
2004-05-17 06:56:48 51°14.984 2°54.493 349.2 9.8 340 7.6
2004-05-17 06:56:53 51°14.997 2°54.486 352 9.8 341 7.6
2004-05-17 06:56:57 51°15.007 2°54.482 354.3 9.7 342 7.6
2004-05-17 06:57:03 51°15.023 2°54.473 354.9 9.7 341 7.5
2004-05-17 06:57:08 51°15.035 2°54.466 354.1 9.7 339 5.6
2004-05-17 06:57:13 51°15.048 2°54.457 351.2 9.8 337 7.5
2004-05-17 06:57:18 51°15.06 2°54.448 349.3 9.8 334 7.5
2004-05-17 06:57:23 51°15.072 2°54.438 347.6 9.8 333 7.5
2004-05-17 06:57:28 51°15.084 2°54.428 346.4 9.9 332 7.5
2004-05-17 06:57:33 51°15.096 2°54.418 345.6 9.9 332 5.6
2004-05-17 06:57:37 51°15.106 2°54.41 345.3 9.9 333 7.6
2004-05-17 06:57:43 51°15.121 2°54.398 345.3 9.8 335 7.4
2004-05-17 06:57:47 51°15.131 2°54.391 346.9 9.8 337 7.6
2004-05-17 06:57:52 51°15.143 2°54.383 349.6 9.7 339 7.7
2004-05-17 06:57:57 51°15.156 2°54.377 353 9.6 344 7.8
2004-05-17 06:58:03 51°15.171 2°54.37 355.6 9.6 344 7.8
2004-05-17 06:58:08 51°15.184 2°54.365 357.5 9.6 346 7.8
2004-05-17 06:58:13 51°15.197 2°54.36 358.2 9.6 345 7.8
2004-05-17 06:58:17 51°15.207 2°54.356 358.2 9.6 345 7.9
2004-05-17 06:58:23 51°15.223 2°54.349 357.6 9.6 344 7.9
2004-05-17 06:58:28 51°15.235 2°54.342 356.2 9.6 342 7.9
2004-05-17 06:58:33 51°15.248 2°54.335 354.1 9.7 340 8
2004-05-17 06:58:38 51°15.261 2°54.327 352.2 9.7 339 8
2004-05-17 06:58:43 51°15.273 2°54.319 351.4 9.7 339 8
2004-05-17 06:58:48 51°15.286 2°54.311 351.2 9.8 338 8.1
2004-05-17 06:58:53 51°15.298 2°54.303 350.8 9.8 338 8.1
2004-05-17 06:58:58 51°15.311 2°54.294 350 9.8 337 8.2
2004-05-17 06:59:03 51°15.323 2°54.285 348.9 9.8 336 8.2
2004-05-17 06:59:08 51°15.336 2°54.276 348.5 9.8 337 8.3
2004-05-17 06:59:13 51°15.348 2°54.268 348.7 9.8 337 8.4
2004-05-17 06:59:18 51°15.361 2°54.26 349.5 9.8 338 8.4
2004-05-17 06:59:23 51°15.373 2°54.252 350.4 9.8 338 8.4
2004-05-17 06:59:28 51°15.386 2°54.245 351.2 9.8 339 8.5
2004-05-17 06:59:33 51°15.399 2°54.236 351.2 9.8 338 8.5
2004-05-17 06:59:37 51°15.409 2°54.23 350.5 9.8 338 8.5
2004-05-17 06:59:43 51°15.424 2°54.219 349.3 9.9 336 8.6
2004-05-17 06:59:47 51°15.433 2°54.211 347.6 9.9 334 8.7
2004-05-17 06:59:53 51°15.448 2°54.199 345.6 9.9 332 8.7
2004-05-17 06:59:58 51°15.46 2°54.188 343.8 10 331 8.7
2004-05-17 07:00:03 51°15.472 2°54.177 343.1 10 330 8.8
2004-05-17 07:00:08 51°15.484 2°54.166 343 10 330 8.9
2004-05-17 07:00:13 51°15.496 2°54.155 343 10 331 8.9
2004-05-17 07:00:18 51°15.508 2°54.145 343.6 10 332 9
2004-05-17 07:00:23 51°15.521 2°54.134 344.5 9.9 333 9.1
2004-05-17 07:00:27 51°15.53 2°54.126 345.4 9.9 332 9.1
2004-05-17 07:00:33 51°15.545 2°54.114 345.2 9.9 332 9.1
2004-05-17 07:00:38 51°15.557 2°54.103 344.1 10 331 9.2
2004-05-17 07:00:43 51°15.569 2°54.093 343.8 10 331 9.2
2004-05-17 07:00:48 51°15.582 2°54.083 345.3 9.9 335 9.2
2004-05-17 07:00:53 51°15.594 2°54.075 347.5 9.8 337 9.3
2004-05-17 07:00:58 51°15.607 2°54.068 350.4 9.8 340 9.4
2004-05-17 07:01:03 51°15.62 2°54.062 353.5 9.7 343 9.4
2004-05-17 07:01:08 51°15.633 2°54.056 355.7 9.6 344 9.5
2004-05-17 07:01:13 51°15.646 2°54.051 357.3 9.6 346 9.5
2004-05-17 07:01:18 51°15.659 2°54.046 358.5 9.6 347 9.6
2004-05-17 07:01:23 51°15.672 2°54.042 359.5 9.6 348 9.6
2004-05-17 07:01:27 51°15.682 2°54.039 0.7 9.6 349 9.7
2004-05-17 07:01:33 51°15.698 2°54.035 1.7 9.6 351 9.7
2004-05-17 07:01:37 51°15.708 2°54.032 2.8 9.6 351 9.7
2004-05-17 07:01:43 51°15.724 2°54.029 3.6 9.5 352 9.8
2004-05-17 07:01:48 51°15.737 2°54.027 4.5 9.5 353 9.9
2004-05-17 07:01:53 51°15.75 2°54.025 5.4 9.5 354 9.9
2004-05-17 07:01:57 51°15.761 2°54.023 6.2 9.5 355 9.9
2004-05-17 07:02:03 51°15.777 2°54.022 7 9.5 357 10
2004-05-17 07:02:07 51°15.787 2°54.021 7.8 9.4 357 9.9
2004-05-17 07:02:13 51°15.803 2°54.02 8.6 9.4 358 10
2004-05-17 07:02:17 51°15.813 2°54.02 9.4 9.4 359 10
2004-05-17 07:02:23 51°15.829 2°54.02 10.2 9.4   10.1
2004-05-17 07:02:27 51°15.839 2°54.02 10.8 9.4 1 10.1
2004-05-17 07:02:33 51°15.855 2°54.021 11.6 9.4 1 10.1
2004-05-17 07:02:38 51°15.868 2°54.022 12.1 9.4 2 10.1
2004-05-17 07:02:41 51°15.876 2°54.022 12.7 9.4 4 10.2
2004-05-17 07:02:47 51°15.891 2°54.024 13.9 9.3 6 10.2
2004-05-17 07:02:51 51°15.901 2°54.026 15.7 9.3 7 10.2
2004-05-17 07:02:55 51°15.911 2°54.029 17.7 9.3 9 10.3
2004-05-17 07:03:03 51°15.931 2°54.035 19.9 9.2 12 10.2
2004-05-17 07:03:07 51°15.941 2°54.039 22.1 8.9 14 10.2
2004-05-17 07:03:13 51°15.955 2°54.045 24.3 8.5 16 10.3
2004-05-17 07:03:17 51°15.963 2°54.05 26 8.1 18 10.3
2004-05-17 07:03:23 51°15.975 2°54.057 28.1 7.7 20 10.4
2004-05-17 07:03:27 51°15.982 2°54.062 30.6 7 23 10.4
2004-05-17 07:03:33 51°15.992 2°54.069 33.2 6.7 25 10.5
2004-05-17 07:03:38 51°16 2°54.075 34.8 6.5 25 10.5
2004-05-17 07:03:41 51°16.004 2°54.079 35.6 6.3 27 10.5
2004-05-17 07:03:48 51°16.015 2°54.087 36 5.8 26 10.5
2004-05-17 07:03:53 51°16.022 2°54.093 35.5 5.7 25 10.5
2004-05-17 07:03:57 51°16.027 2°54.096 34.9 5.6 24 10.5
2004-05-17 07:04:03 51°16.035 2°54.102 33.7 5.3 22 10.6
2004-05-17 07:04:07 51°16.041 2°54.105 32.2 5.2 20 10.6
2004-05-17 07:04:13 51°16.049 2°54.109 30.6 5 18 10.6
2004-05-17 07:04:16 51°16.053 2°54.111 28.4 5 16 10.6
2004-05-17 07:04:23 51°16.062 2°54.114 26.8 4.8 14 10.6
2004-05-17 07:04:27 51°16.067 2°54.116 26.1 4.7 14 10.6
2004-05-17 07:04:32 51°16.073 2°54.119 26.1 4.7 15 10.6
2004-05-17 07:04:36 51°16.078 2°54.121 26.8 4.6 16 10.6
2004-05-17 07:04:43 51°16.087 2°54.125 27.8 4.5 16 10.7
2004-05-17 07:04:48 51°16.092 2°54.128 28.9 4.4 19 10.6
2004-05-17 07:04:53 51°16.098 2°54.131 31 4.3 20 10.7
2004-05-17 07:04:57 51°16.102 2°54.134 32.9 4.2 23 10.7
2004-05-17 07:05:03 51°16.108 2°54.139 34.6 4.1 25 10.7
2004-05-17 07:05:07 51°16.112 2°54.142 36.6 4 27 10.6
2004-05-17 07:05:12 51°16.117 2°54.146 38.4 4 28 10.6
2004-05-17 07:05:17 51°16.122 2°54.15 40.2 3.9 30 10.7
2004-05-17 07:05:23 51°16.127 2°54.156 41.3 3.9 32 10.7
2004-05-17 07:05:28 51°16.132 2°54.161 42.5 4 34 10.7
2004-05-17 07:05:33 51°16.137 2°54.167 43.6 4.3 36 10.6
2004-05-17 07:05:38 51°16.142 2°54.173 45 4.7 38 10.7
2004-05-17 07:05:43 51°16.147 2°54.18 46.3 4.8 39 10.7
2004-05-17 07:05:47 51°16.152 2°54.186 47.5 5.3 42 10.7
2004-05-17 07:05:52 51°16.157 2°54.195 48.9 5.5 43 10.7
2004-05-17 07:05:57 51°16.163 2°54.204 50.1 5.7 45 10.7
2004-05-17 07:06:03 51°16.17 2°54.215 51 5.9 43 10.7
2004-05-17 07:06:07 51°16.175 2°54.222 50.4 6 43 10.7
2004-05-17 07:06:12 51°16.181 2°54.231 49.5 6.1 40 10.7
2004-05-17 07:06:17 51°16.188 2°54.238 46.4 6.2 34 10.7
2004-05-17 07:06:23 51°16.197 2°54.247 42.2 6.3 31 10.7
2004-05-17 07:06:27 51°16.204 2°54.252 37.8 6.4 25 10.7
2004-05-17 07:06:33 51°16.214 2°54.259 35.1 6.4 25 10.7
2004-05-17 07:06:37 51°16.22 2°54.263 33.8 6.1 23 10.7
2004-05-17 07:06:43 51°16.229 2°54.269 33 5.9 23 10.7
2004-05-17 07:06:47 51°16.235 2°54.273 32.5 5.5 22 10.7
2004-05-17 07:06:52 51°16.241 2°54.277 32.3 5.3 22 10.8
2004-05-17 07:06:57 51°16.248 2°54.281 32.7 5 22 10.8
2004-05-17 07:07:03 51°16.255 2°54.286 33.4 4.9 23 10.8
2004-05-17 07:07:07 51°16.26 2°54.29 34.2 4.5 23 10.8
2004-05-17 07:07:12 51°16.265 2°54.293 34.5 4.1 23 10.8
2004-05-17 07:07:17 51°16.269 2°54.296 34.8 3.4 23 10.8
2004-05-17 07:07:23 51°16.274 2°54.3 37 2.9 26 10.8
2004-05-17 07:07:27 51°16.276 2°54.301 40.5 2.2 28 10.8
2004-05-17 07:07:32 51°16.278 2°54.303 44.7 1.6 32 10.9
2004-05-17 07:07:37 51°16.279 2°54.304 45.9 1 14 10.9
2004-05-17 07:07:43 51°16.28 2°54.304 45 0.6 9 10.9
2004-05-17 07:07:47 51°16.281 2°54.303 42.9 0.5 331 10.9
2004-05-17 07:07:53 51°16.281 2°54.303 40.7 0.4 339 10.9
2004-05-17 07:07:55 51°16.281 2°54.303 39.7 0.5 327 10.9
2004-05-17 07:08:03 51°16.282 2°54.302 38.4 0.4 331 10.9
2004-05-17 07:08:08 51°16.283 2°54.301 37.3 0.5 313 10.9
2004-05-17 07:08:12 51°16.283 2°54.3 36.2 0.5 267 10.9
2004-05-17 07:08:15 51°16.283 2°54.299 35.4 0.8 265 10.9
2004-05-17 07:08:23 51°16.282 2°54.297 35 0.6 249 10.9
2004-05-17 07:08:27 51°16.282 2°54.296 34.8 0.7 265 10.9
2004-05-17 07:08:32 51°16.282 2°54.295 34.6 0.5 255 10.9
2004-05-17 07:08:36 51°16.282 2°54.293 34.6 0.7 268 10.9
2004-05-17 07:08:43 51°16.282 2°54.292 34.3 0.7 268 11
2004-05-17 07:08:48 51°16.282 2°54.29 34.5 0.7 268 11
2004-05-17 07:08:53 51°16.282 2°54.289 34.4 0.6 261 10.9
2004-05-17 07:08:58 51°16.282 2°54.287 34.6 0.7 268 10.9
2004-05-17 07:09:03 51°16.282 2°54.286 34.6 0.7 265 10.9
2004-05-17 07:09:07 51°16.282 2°54.285 34.7 0.7 269 10.9
2004-05-17 07:09:12 51°16.281 2°54.283 34.7 0.6 261 10.9
2004-05-17 07:09:17 51°16.281 2°54.282 34.8 0.7 268 10.9
2004-05-17 07:09:23 51°16.281 2°54.28 35 0.6 262 10.9
2004-05-17 07:09:27 51°16.281 2°54.279 35 0.7 265 10.9
2004-05-17 07:09:33 51°16.281 2°54.277 35.2 0.7 262 10.9
2004-05-17 07:09:35 51°16.281 2°54.276 35.4 0.7 265 10.9
2004-05-17 07:09:43 51°16.281 2°54.274 35.5 0.7 261 10.9
2004-05-17 07:09:48 51°16.281 2°54.272 35.5 0.8 264 10.9
2004-05-17 07:09:53 51°16.281 2°54.271 35.7 0.6 257 10.9
2004-05-17 07:09:57 51°16.281 2°54.27 35.9 0.8 264 10.9
2004-05-17 07:10:03 51°16.28 2°54.268 35.9 0.7 260 10.9
2004-05-17 07:10:08 51°16.28 2°54.266 36.1 0.7 260 10.9
2004-05-17 07:10:13 51°16.28 2°54.265 36.2 0.7 258 10.9
2004-05-17 07:10:17 51°16.28 2°54.263 36.3 0.7 259 10.9
2004-05-17 07:10:23 51°16.279 2°54.261 36.4 0.7 259 10.9
2004-05-17 07:10:28 51°16.279 2°54.26 36.5 0.8 260 10.9
2004-05-17 07:10:33 51°16.279 2°54.258 36.6 0.7 256 10.9
2004-05-17 07:10:37 51°16.279 2°54.257 36.7 0.8 257 10.9
2004-05-17 07:10:43 51°16.278 2°54.255 36.9 0.8 256 10.9
2004-05-17 07:10:47 51°16.278 2°54.254 37 0.8 256 10.9
2004-05-17 07:10:51 51°16.278 2°54.253 37.1 0.8 255 10.9
2004-05-17 07:10:57 51°16.278 2°54.251 37.3 0.8 255 10.9
2004-05-17 07:11:03 51°16.277 2°54.249 37.3 0.8 257 10.9
2004-05-17 07:11:07 51°16.277 2°54.247 37.4 0.8 251 10.9
2004-05-17 07:11:11 51°16.277 2°54.246 37.7 0.8 256 10.9
2004-05-17 07:11:17 51°16.277 2°54.244 37.7 0.8 252 10.9
2004-05-17 07:11:23 51°16.276 2°54.242 37.9 0.8 255 10.9
2004-05-17 07:11:28 51°16.276 2°54.24 38 0.8 252 10.9
2004-05-17 07:11:32 51°16.276 2°54.239 38.3 0.8 253 10.9
2004-05-17 07:11:37 51°16.275 2°54.237 38.4 0.8 252 10.9
2004-05-17 07:11:43 51°16.275 2°54.235 38.5 0.8 251 10.9
2004-05-17 07:11:47 51°16.275 2°54.234 38.8 0.8 250 10.9
2004-05-17 07:11:52 51°16.274 2°54.232 38.9 0.8 251 11
2004-05-17 07:11:57 51°16.274 2°54.231 39.1 0.8 251 10.9
2004-05-17 07:12:03 51°16.273 2°54.229 39.2 0.8 249 10.9
2004-05-17 07:12:07 51°16.273 2°54.227 39.6 0.8 248 11
2004-05-17 07:12:12 51°16.272 2°54.226 39.6 0.8 251 10.9
2004-05-17 07:12:17 51°16.272 2°54.224 39.8 0.8 249 10.9
2004-05-17 07:12:23 51°16.272 2°54.222 40.1 0.8 250 10.9
2004-05-17 07:12:27 51°16.271 2°54.221 40.2 0.8 248 10.9
2004-05-17 07:12:33 51°16.271 2°54.218 40.5 0.9 249 11
2004-05-17 07:12:37 51°16.27 2°54.217 40.6 0.8 247 11
2004-05-17 07:12:43 51°16.27 2°54.215 40.8 0.9 250 10.9
2004-05-17 07:12:47 51°16.269 2°54.214 41 0.9 249 11
2004-05-17 07:12:53 51°16.269 2°54.212 41.2 0.8 245 11
2004-05-17 07:12:57 51°16.269 2°54.21 41.3 0.9 247 11
2004-05-17 07:13:03 51°16.268 2°54.208 41.4 0.9 248 11
2004-05-17 07:13:08 51°16.268 2°54.206 41.7 0.9 248 10.9
2004-05-17 07:13:13 51°16.267 2°54.204 41.8 0.9 244 11
2004-05-17 07:13:18 51°16.266 2°54.203 42 0.9 247 11
2004-05-17 07:13:23 51°16.266 2°54.201 42.1 0.9 246 10.9
2004-05-17 07:13:28 51°16.266 2°54.199 42.4 0.9 247 10.9
2004-05-17 07:13:33 51°16.265 2°54.198 42.7 0.7 249 10.9
2004-05-17 07:13:37 51°16.266 2°54.198 42.8 0.5 307 10.9
2004-05-17 07:13:43 51°16.268 2°54.199 42.2 1.8 15 11
2004-05-17 07:13:47 51°16.271 2°54.2 39.4 2.8 17 10.9
2004-05-17 07:13:52 51°16.277 2°54.203 34.2 4 16 10.9
2004-05-17 07:13:57 51°16.284 2°54.204 29.2 5.2 9 10.9
2004-05-17 07:14:03 51°16.296 2°54.204 22 6.2 4 10.9
2004-05-17 07:14:08 51°16.306 2°54.202 14.6 8 352 10.8
2004-05-17 07:14:13 51°16.318 2°54.197 5.8 8.7 347 10.8
2004-05-17 07:14:17 51°16.328 2°54.191 359.9 9.4 341 10.8
2004-05-17 07:14:23 51°16.343 2°54.177 352.3 10 335 10.8
2004-05-17 07:14:27 51°16.353 2°54.165 344.3 11 322 10.8
2004-05-17 07:14:33 51°16.367 2°54.143 336.2 11.6 316 10.8
2004-05-17 07:14:37 51°16.375 2°54.127 328.7 12.2 311 10.8
2004-05-17 07:14:44 51°16.39 2°54.096 323.7 12.5 309 10.9
2004-05-17 07:14:48 51°16.399 2°54.077 319.7 13 305 10.9
2004-05-17 07:14:53 51°16.41 2°54.054 318.3 13.1 307 10.9
2004-05-17 07:14:57 51°16.418 2°54.035 318.6 13.2 307 11
2004-05-17 07:15:03 51°16.431 2°54.006 316.8 13.5 304 10.9
2004-05-17 07:15:07 51°16.439 2°53.985 314.8 13.7 302 11
2004-05-17 07:15:13 51°16.451 2°53.954 313.6 13.7 302 11
2004-05-17 07:15:17 51°16.459 2°53.933 312.7 13.8 301 11
2004-05-17 07:15:24 51°16.473 2°53.896 312 13.9 301 11.1
2004-05-17 07:15:28 51°16.481 2°53.875 311.6 13.9 301 11
2004-05-17 07:15:33 51°16.491 2°53.849 311.3 14 300 11.1
2004-05-17 07:15:37 51°16.498 2°53.827 311 14 300 11
2004-05-17 07:15:43 51°16.51 2°53.795 310.6 14 300 11
2004-05-17 07:15:48 51°16.52 2°53.769 310.5 13.9 300 11.1
2004-05-17 07:15:53 51°16.53 2°53.742 310.7 13.9 301 11.1
2004-05-17 07:15:57 51°16.537 2°53.721 311.2 13.9 301 11.1
2004-05-17 07:16:04 51°16.552 2°53.684 311.3 13.9 301 11.1
2004-05-17 07:16:08 51°16.56 2°53.663 311.7 13.9 301 11.1
2004-05-17 07:16:13 51°16.57 2°53.637 311.8 13.9 302 11.1
2004-05-17 07:16:16 51°16.576 2°53.621 311.8 13.9 302 11.1
2004-05-17 07:16:23 51°16.591 2°53.586 312.4 13.9 304 11.1
2004-05-17 07:16:28 51°16.601 2°53.56 313.7 13.9 304 11
2004-05-17 07:16:33 51°16.612 2°53.535 314.5 13.8 305 11
2004-05-17 07:16:37 51°16.621 2°53.515 315 13.8 305 11
2004-05-17 07:16:44 51°16.636 2°53.48 315.6 13.8 305 10.9
2004-05-17 07:16:48 51°16.645 2°53.461 315.8 13.7 306 10.9
2004-05-17 07:16:52 51°16.654 2°53.441 316 13.7 306 10.8
2004-05-17 07:16:57 51°16.665 2°53.416 316 13.7 306 10.7
2004-05-17 07:17:03 51°16.678 2°53.387 315.7 13.7 305 10.7
2004-05-17 07:17:08 51°16.689 2°53.362 315.4 13.7 305 10.6
2004-05-17 07:17:12 51°16.698 2°53.342 315.5 13.7 306 10.6
2004-05-17 07:17:17 51°16.71 2°53.319 317.1 13.6 308 10.5
2004-05-17 07:17:22 51°16.722 2°53.295 318.3 13.6 309 10.4
2004-05-17 07:17:28 51°16.736 2°53.268 319.4 13.6 310 10.4
2004-05-17 07:17:33 51°16.749 2°53.245 320.1 13.5 310 10.3
2004-05-17 07:17:37 51°16.758 2°53.227 320.4 13.5 311 10.3
2004-05-17 07:17:43 51°16.773 2°53.2 320.8 13.5 311 10.1
2004-05-17 07:17:48 51°16.785 2°53.177 320.7 13.5 310 10.1
2004-05-17 07:17:53 51°16.797 2°53.154 320.3 13.5 310 9.9
2004-05-17 07:17:57 51°16.807 2°53.136 320.3 13.5 310 9.8
2004-05-17 07:18:04 51°16.824 2°53.105 320.5 13.4 311 9.5
2004-05-17 07:18:08 51°16.834 2°53.087 320.6 13.3 311 8.9
2004-05-17 07:18:13 51°16.846 2°53.065 320.8 13.2 312 8.1
2004-05-17 07:18:18 51°16.858 2°53.044 321.9 12.9 312 7.8
2004-05-17 07:18:24 51°16.872 2°53.02 322.2 12.7 312 7.5
2004-05-17 07:18:27 51°16.88 2°53.008 323 12.5 314 -999
2004-05-17 07:18:33 51°16.894 2°52.984 323.8 12.4 314 7.6
2004-05-17 07:18:37 51°16.904 2°52.968 324.5 12.5 315 7.5
2004-05-17 07:18:43 51°16.918 2°52.945 325 12.5 315 7.6
2004-05-17 07:18:47 51°16.928 2°52.929 325.2 12.7 314 7.7
2004-05-17 07:18:52 51°16.941 2°52.909 325.2 12.8 314 7.9
2004-05-17 07:18:56 51°16.951 2°52.892 325.3 12.8 314 8
2004-05-17 07:19:03 51°16.968 2°52.864 325.6 12.9 314 8.3
2004-05-17 07:19:07 51°16.978 2°52.847 325.1 13.2 313 8.3
2004-05-17 07:19:13 51°16.993 2°52.82 323.8 13.3 312 8.6
2004-05-17 07:19:17 51°17.002 2°52.802 322.3 13.3 311 8.6
2004-05-17 07:19:23 51°17.017 2°52.775 321.4 13.4 310 8.7
2004-05-17 07:19:28 51°17.028 2°52.752 320.8 13.5 309 8.9
2004-05-17 07:19:32 51°17.038 2°52.733 320.2 13.5 309 8.9
2004-05-17 07:19:37 51°17.05 2°52.71 319.9 13.5 309 9.2
2004-05-17 07:19:42 51°17.062 2°52.687 320.2 13.5 310 9.2
2004-05-17 07:19:47 51°17.074 2°52.665 321.6 13.5 311 8.9
2004-05-17 07:19:53 51°17.089 2°52.638 322.6 13.5 312 8.7
2004-05-17 07:19:57 51°17.099 2°52.621 323.8 13.2 313 8.5
2004-05-17 07:20:03 51°17.115 2°52.596 325.1 13.1 315 8.5
2004-05-17 07:20:07 51°17.125 2°52.581 326.7 13 317 8.8
2004-05-17 07:20:12 51°17.138 2°52.561 328 13.1 317 8.7
2004-05-17 07:20:17 51°17.151 2°52.541 328.1 13.1 316 8.7
2004-05-17 07:20:23 51°17.167 2°52.516 327.9 13.2 316 8.9
2004-05-17 07:20:27 51°17.177 2°52.5 327.5 13.2 315 8.8
2004-05-17 07:20:33 51°17.193 2°52.475 327.1 13.3 315 8.9
2004-05-17 07:20:37 51°17.203 2°52.457 326.3 13.3 314 8.9
2004-05-17 07:20:43 51°17.219 2°52.432 325.8 13.3 314 9.1
2004-05-17 07:20:47 51°17.229 2°52.415 325.8 13.3 315 9.1
2004-05-17 07:20:53 51°17.245 2°52.391 326.5 13.3 316 9.2
2004-05-17 07:20:57 51°17.256 2°52.375 327.7 13.3 318 9.2
2004-05-17 07:21:03 51°17.272 2°52.351 328.9 13.3 318 9.4
2004-05-17 07:21:08 51°17.286 2°52.332 330.2 13.3 320 9.4
2004-05-17 07:21:13 51°17.301 2°52.313 331.1 13.3 320 9.6
2004-05-17 07:21:17 51°17.312 2°52.298 331.4 13.3 320 9.3
2004-05-17 07:21:23 51°17.329 2°52.275 331.5 13.3 320 9.4
2004-05-17 07:21:28 51°17.343 2°52.256 331.2 13.3 319 9.6
2004-05-17 07:21:33 51°17.356 2°52.236 330.2 13.3 318 9.5
2004-05-17 07:21:37 51°17.367 2°52.22 329.6 13.3 318 9.5
2004-05-17 07:21:43 51°17.384 2°52.197 329.2 13.3 318 9.6
2004-05-17 07:21:47 51°17.395 2°52.181 329.1 13.4 318 9.6
2004-05-17 07:21:51 51°17.406 2°52.165 329.2 13.3 318 9.6
2004-05-17 07:21:57 51°17.422 2°52.142 329.5 13.3 319 9.7
2004-05-17 07:22:03 51°17.439 2°52.119 329.7 13.3 319 9.6
2004-05-17 07:22:08 51°17.453 2°52.099 329.7 13.3 319 9.7
2004-05-17 07:22:13 51°17.467 2°52.08 329.8 13.3 319 9.5
2004-05-17 07:22:17 51°17.478 2°52.064 329.5 13.3 318 9.6
2004-05-17 07:22:23 51°17.494 2°52.04 329.4 13.3 318 9.6
2004-05-17 07:22:27 51°17.505 2°52.024 329 13.3 317 9.7
2004-05-17 07:22:33 51°17.522 2°52 328.7 13.3 317 9.6
2004-05-17 07:22:37 51°17.532 2°51.984 328.7 13.3 318 9.7
2004-05-17 07:22:43 51°17.549 2°51.961 329.2 13.3 318 9.7
2004-05-17 07:22:47 51°17.56 2°51.945 329.6 13.3 318 9.6
2004-05-17 07:22:51 51°17.571 2°51.93 329.9 13.3 319 9.6
2004-05-17 07:22:57 51°17.588 2°51.906 330.2 13.3 319 9.3
2004-05-17 07:23:03 51°17.604 2°51.884 330.3 13.2 319 9.5
2004-05-17 07:23:07 51°17.615 2°51.868 330.5 13.2 319 9.3
2004-05-17 07:23:12 51°17.629 2°51.849 330.4 13.2 319 9.4
2004-05-17 07:23:17 51°17.643 2°51.829 330.1 13.3 319 9.4
2004-05-17 07:23:23 51°17.66 2°51.806 329.6 13.2 318 9.2
2004-05-17 07:23:27 51°17.671 2°51.791 329.2 13.3 318 9.3
2004-05-17 07:23:31 51°17.682 2°51.775 329 13.3 318 9.3
2004-05-17 07:23:37 51°17.698 2°51.751 328.7 13.2 318 9.3
2004-05-17 07:23:43 51°17.714 2°51.727 328.7 13.3 318 9.1
2004-05-17 07:23:47 51°17.726 2°51.712 328.8 13.2 319 9.1
2004-05-17 07:23:53 51°17.742 2°51.689 329.4 13.2 318 9.3
2004-05-17 07:23:58 51°17.756 2°51.669 329.5 13.2 318 9.2
2004-05-17 07:24:03 51°17.769 2°51.649 329.5 13.3 318 9.3
2004-05-17 07:24:07 51°17.78 2°51.633 329.4 13.3 318 9.1
2004-05-17 07:24:11 51°17.791 2°51.618 329 13.3 317 9.2
2004-05-17 07:24:17 51°17.807 2°51.594 328.7 13.3 317 9.2
2004-05-17 07:24:23 51°17.823 2°51.57 328.7 13.3 317 9.4
2004-05-17 07:24:27 51°17.835 2°51.554 328.7 13.3 317 9.4
2004-05-17 07:24:31 51°17.846 2°51.538 328.8 13.4 317 9.4
2004-05-17 07:24:37 51°17.862 2°51.514 329.4 13.4 318 9.4
2004-05-17 07:24:43 51°17.879 2°51.491 329.9 13.4 319 9.5
2004-05-17 07:24:47 51°17.89 2°51.476 330.4 13.4 319 9.6
2004-05-17 07:24:53 51°17.907 2°51.453 330.8 13.4 320 9.6
2004-05-17 07:24:56 51°17.916 2°51.441 331.1 13.4 320 9.8
2004-05-17 07:25:03 51°17.936 2°51.414 331.1 13.4 319 9.9
2004-05-17 07:25:07 51°17.947 2°51.399 330.7 13.5 319 9.9
2004-05-17 07:25:13 51°17.964 2°51.375 330.2 13.5 318 9.9
2004-05-17 07:25:16 51°17.972 2°51.362 329.2 13.5 318 10.1
2004-05-17 07:25:23 51°17.991 2°51.334 328.8 13.5 318 10.3
2004-05-17 07:25:28 51°18.005 2°51.314 328.5 13.6 318 10.4
2004-05-17 07:25:33 51°18.019 2°51.294 328.4 13.6 317 10.5
2004-05-17 07:25:37 51°18.03 2°51.277 328.4 13.6 317 10.6
2004-05-17 07:25:43 51°18.047 2°51.253 328.6 13.6 318 10.7
2004-05-17 07:25:48 51°18.061 2°51.233 328.7 13.6 318 10.9
2004-05-17 07:25:53 51°18.075 2°51.213 329.2 13.6 318 11
2004-05-17 07:25:57 51°18.086 2°51.197 329.2 13.6 318 11.2
2004-05-17 07:26:03 51°18.102 2°51.172 328.9 13.6 317 11.2
2004-05-17 07:26:07 51°18.114 2°51.156 328.7 13.6 317 11.3
2004-05-17 07:26:13 51°18.13 2°51.132 328.8 13.4 317 11.5
2004-05-17 07:26:17 51°18.14 2°51.116 328.9 12.9 317 11.5
2004-05-17 07:26:23 51°18.156 2°51.094 329.5 12.5 318 11.6
2004-05-17 07:26:27 51°18.165 2°51.08 329.6 11.6 317 11.7
2004-05-17 07:26:33 51°18.179 2°51.06 329.9 11.1 317 12
2004-05-17 07:26:37 51°18.187 2°51.048 330.3 10.5 317 12
2004-05-17 07:26:43 51°18.199 2°51.03 330.7 10.1 317 12.2
2004-05-17 07:26:48 51°18.209 2°51.016 331.2 9.4 318 12.3
2004-05-17 07:26:53 51°18.218 2°51.003 332.4 9 319 12.3
2004-05-17 07:26:57 51°18.225 2°50.994 333.6 8.5 320 12.4
2004-05-17 07:27:03 51°18.236 2°50.98 335.3 8.2 321 12.5
2004-05-17 07:27:07 51°18.243 2°50.972 337.2 7.8 324 12.4
2004-05-17 07:27:12 51°18.251 2°50.963 339.2 7.6 325 12.5
2004-05-17 07:27:16 51°18.258 2°50.955 341.6 7.3 327 12.6
2004-05-17 07:27:23 51°18.27 2°50.945 343.9 6.9 331 12.6
2004-05-17 07:27:28 51°18.278 2°50.938 346.8 6.6 334 12.6
2004-05-17 07:27:33 51°18.286 2°50.933 350 6.4 336 12.6
2004-05-17 07:27:37 51°18.293 2°50.929 353.7 6.2 340 12.7
2004-05-17 07:27:43 51°18.302 2°50.925 357.3 6 343 12.8
2004-05-17 07:27:47 51°18.308 2°50.922 0.7 5.7 348 12.7
2004-05-17 07:27:53 51°18.317 2°50.92 4.2 5.5 351 12.8
2004-05-17 07:27:57 51°18.323 2°50.92 7.8 5.3 356 12.8
2004-05-17 07:28:03 51°18.332 2°50.92 11.8 5.3 356 12.8
2004-05-17 07:28:08 51°18.338 2°50.921 16 4.9 6 12.9
2004-05-17 07:28:11 51°18.342 2°50.922 20.2 4.8 10 12.8
2004-05-17 07:28:16 51°18.348 2°50.925 24.4 4.7 14 12.8
2004-05-17 07:28:23 51°18.357 2°50.93 28.5 4.6 20 12.9
2004-05-17 07:28:27 51°18.361 2°50.933 32.4 4.4 25 12.9
2004-05-17 07:28:33 51°18.368 2°50.938 35.1 4.4 26 12.8
2004-05-17 07:28:37 51°18.372 2°50.942 37 4.4 28 13
2004-05-17 07:28:43 51°18.378 2°50.947 38.1 4.4 28 13
2004-05-17 07:28:48 51°18.384 2°50.952 38.4 4.4 28 13
2004-05-17 07:28:53 51°18.389 2°50.956 37.9 4.3 27 13
2004-05-17 07:28:57 51°18.393 2°50.96 36.7 4.4 26 13
2004-05-17 07:29:03 51°18.4 2°50.964 35.6 4.4 25 13
2004-05-17 07:29:08 51°18.406 2°50.968 34.1 4.4 22 13
2004-05-17 07:29:13 51°18.411 2°50.972 32.9 4.4 22 13
2004-05-17 07:29:17 51°18.416 2°50.974 31.7 4.4 20 13.1
2004-05-17 07:29:23 51°18.423 2°50.978 30.8 4.4 19 13
2004-05-17 07:29:27 51°18.428 2°50.981 29.7 5 16 13
2004-05-17 07:29:33 51°18.436 2°50.984 28.3 5.1 16 13
2004-05-17 07:29:37 51°18.441 2°50.986 26.7 4.8 13 13.1
2004-05-17 07:29:43 51°18.449 2°50.988 25 4.5 11 13.1
2004-05-17 07:29:47 51°18.453 2°50.989 23.2 4.3 6 13.1
2004-05-17 07:29:51 51°18.458 2°50.99 20.4 4.1 4 13.2
2004-05-17 07:29:57 51°18.465 2°50.99 18.7 4   13.2
2004-05-17 07:30:03 51°18.471 2°50.989 16 3.7 357 13.3
2004-05-17 07:30:07 51°18.474 2°50.988 13.4 3.1 350 13.2
2004-05-17 07:30:13 51°18.478 2°50.987 11.6 2.7 348 13.2
2004-05-17 07:30:17 51°18.48 2°50.986 13 1.9 345 13.2
2004-05-17 07:30:23 51°18.482 2°50.985 16.9 1.6 340 13.3
2004-05-17 07:30:27 51°18.482 2°50.983 19.8 0.9 287 13.2
2004-05-17 07:30:33 51°18.481 2°50.981 23.7 1 248 13.2
2004-05-17 07:30:37 51°18.481 2°50.979 26.2 1.2 240 13.2
2004-05-17 07:30:43 51°18.48 2°50.976 28.3 1.2 244 13.3
2004-05-17 07:30:47 51°18.479 2°50.974 29.7 1.2 240 13.3
2004-05-17 07:30:53 51°18.478 2°50.971 31.5 1.2 240 13.3
2004-05-17 07:30:56 51°18.478 2°50.97 33.1 1.2 240 13.3
2004-05-17 07:31:03 51°18.477 2°50.967 34.3 1.2 242 13.3
2004-05-17 07:31:07 51°18.476 2°50.965 35.4 1.1 237 13.3
2004-05-17 07:31:11 51°18.475 2°50.963 36.2 1.2 242 13.2
2004-05-17 07:31:17 51°18.474 2°50.961 37 1.2 237 13.3
2004-05-17 07:31:23 51°18.473 2°50.958 37.6 1.2 241 13.3
2004-05-17 07:31:27 51°18.473 2°50.956 38.2 1.2 239 13.3
2004-05-17 07:31:32 51°18.472 2°50.954 38.7 1.2 239 13.3
2004-05-17 07:31:37 51°18.471 2°50.952 39.2 1.2 238 13.3
2004-05-17 07:31:43 51°18.47 2°50.949 39.6 1.2 237 13.3
2004-05-17 07:31:48 51°18.469 2°50.947 40 1.2 238 13.2
2004-05-17 07:31:53 51°18.468 2°50.945 40.5 1.2 238 13.3
2004-05-17 07:31:57 51°18.467 2°50.943 40.8 1.2 238 13.3
2004-05-17 07:32:03 51°18.466 2°50.941 41.3 1.1 237 13.2
2004-05-17 07:32:08 51°18.465 2°50.939 41.8 1.1 237 13.3
2004-05-17 07:32:12 51°18.465 2°50.937 42.1 1.1 236 13.3
2004-05-17 07:32:15 51°18.464 2°50.936 42.5 1.2 237 13.3
2004-05-17 07:32:23 51°18.463 2°50.932 42.9 1.1 235 13.3
2004-05-17 07:32:27 51°18.462 2°50.931 43.5 1.1 234 13.3
2004-05-17 07:32:33 51°18.461 2°50.928 43.7 1.2 239 13.4
2004-05-17 07:32:37 51°18.46 2°50.926 44.3 1.2 236 13.2
2004-05-17 07:32:43 51°18.459 2°50.924 44.9 1.1 236 13.3
2004-05-17 07:32:48 51°18.458 2°50.922 45.4 1.1 233 13.3
2004-05-17 07:32:53 51°18.457 2°50.92 45.8 1.2 238 13.1
2004-05-17 07:32:57 51°18.457 2°50.918 46.3 1.1 234 13.3
2004-05-17 07:33:03 51°18.456 2°50.915 46.9 1.1 237 13.3
2004-05-17 07:33:08 51°18.455 2°50.913 47.3 1.1 233 13.3
2004-05-17 07:33:13 51°18.454 2°50.911 47.9 1.1 236 13.3
2004-05-17 07:33:15 51°18.453 2°50.911 48.4 1.1 232 13.3
2004-05-17 07:33:23 51°18.452 2°50.907 48.8 1.1 234 13.3
2004-05-17 07:33:27 51°18.451 2°50.906 49.3 1.1 231 13.2
2004-05-17 07:33:33 51°18.45 2°50.904 49.9 1.1 235 13.3
2004-05-17 07:33:38 51°18.449 2°50.902 50.3 1.1 233 13.3
2004-05-17 07:33:44 51°18.448 2°50.899 50.7 1.1 235 13.3
2004-05-17 07:33:48 51°18.447 2°50.898 51.2 1.1 233 13.2
2004-05-17 07:33:54 51°18.446 2°50.895 51.7 1.1 235 13.3
2004-05-17 07:33:58 51°18.446 2°50.894 52.2 1.1 230 13.3
2004-05-17 07:34:02 51°18.445 2°50.892 52.7 1.1 232 13.2
2004-05-17 07:34:08 51°18.444 2°50.89 53.1 1.1 228 13.2
2004-05-17 07:34:14 51°18.443 2°50.888 53.6 1.1 235 13.3
2004-05-17 07:34:16 51°18.442 2°50.887 53.9 1.1 231 13.2
2004-05-17 07:34:24 51°18.441 2°50.884 54.4 1.1 232 13.4
2004-05-17 07:34:28 51°18.44 2°50.883 54.9 1.1 229 13.3
2004-05-17 07:34:33 51°18.439 2°50.881 55.3 1.1 233 13.2
2004-05-17 07:34:36 51°18.438 2°50.88 55.8 1.1 230 13.2
2004-05-17 07:34:44 51°18.437 2°50.877 56.2 1.1 230 13.3
2004-05-17 07:34:48 51°18.436 2°50.875 56.6 1.1 227 13.3
2004-05-17 07:34:54 51°18.435 2°50.873 57.2 1.1 231 13.2
2004-05-17 07:34:58 51°18.434 2°50.872 57.6 1.1 231 13.2
2004-05-17 07:35:04 51°18.433 2°50.87 58.1 1.1 227 13.4
2004-05-17 07:35:09 51°18.432 2°50.868 58.6 1.1 231 13.4
2004-05-17 07:35:13 51°18.431 2°50.866 58.9 1.1 226 13.2
2004-05-17 07:35:18 51°18.43 2°50.865 59.5 1.1 230 13.2
2004-05-17 07:35:24 51°18.429 2°50.863 59.9 1.1 227 13.3
2004-05-17 07:35:28 51°18.428 2°50.861 60.3 1.1 230 13.3
2004-05-17 07:35:34 51°18.427 2°50.859 60.8 1.1 227 13.2
2004-05-17 07:35:38 51°18.426 2°50.858 61.4 1.1 228 13.3
2004-05-17 07:35:44 51°18.425 2°50.856 61.9 1.1 229 13.3
2004-05-17 07:35:48 51°18.424 2°50.854 62.4 1 227 13.2
2004-05-17 07:35:52 51°18.423 2°50.853 62.8 0.9 222 13.3
2004-05-17 07:35:58 51°18.423 2°50.853 63.4 0.6 214 13.3
2004-05-17 07:36:03 51°18.422 2°50.853 64.1 0.3 159 13.3
2004-05-17 07:36:08 51°18.422 2°50.854 65 0.5 100 13.3
2004-05-17 07:36:14 51°18.422 2°50.856 66 0.7 87 13.2
2004-05-17 07:36:17 51°18.423 2°50.858 66.8 1 84 13.2
2004-05-17 07:36:24 51°18.423 2°50.862 67.9 1.3 79 13.3
2004-05-17 07:36:28 51°18.423 2°50.865 69 1.6 76 13.3
2004-05-17 07:36:32 51°18.424 2°50.868 70.1 1.9 77 13.1
2004-05-17 07:36:38 51°18.424 2°50.874 71.1 2.1 77 13.3
2004-05-17 07:36:43 51°18.425 2°50.879 72.2 2.3 77 13.2
2004-05-17 07:36:48 51°18.425 2°50.885 73.1 2.8 77 13.3
2004-05-17 07:36:53 51°18.426 2°50.892 73.9 3.2 75 13.3
2004-05-17 07:36:58 51°18.428 2°50.899 73.9 3.6 75 13.3
2004-05-17 07:37:04 51°18.432 2°50.907 68.1 3.8 59 13.2
2004-05-17 07:37:08 51°18.435 2°50.912 58.7 4 44 13.2
2004-05-17 07:37:13 51°18.44 2°50.917 48.7 4.1 32 13.3
2004-05-17 07:37:18 51°18.446 2°50.92 38.4 4.3 21 13.2
2004-05-17 07:37:24 51°18.454 2°50.92 28.5 4.5 11 13.3
2004-05-17 07:37:28 51°18.46 2°50.918 18.3 5 351 13.2
2004-05-17 07:37:34 51°18.468 2°50.913 10.3 5.2 342 13.3
2004-05-17 07:37:38 51°18.473 2°50.908 358 5.5 333 13.3
2004-05-17 07:37:44 51°18.48 2°50.897 348 5.9 321 13.3
2004-05-17 07:37:48 51°18.485 2°50.888 337.7 6.3 309 13.3
2004-05-17 07:37:52 51°18.488 2°50.878 327.3 6.5 301 13.5
2004-05-17 07:37:58 51°18.492 2°50.861 317.1 6.9 290 13.4
2004-05-17 07:38:04 51°18.494 2°50.841 306.7 7.2 283 13.5
2004-05-17 07:38:08 51°18.495 2°50.828 297 7.7 274 13.5
2004-05-17 07:38:13 51°18.495 2°50.81 288.1 7.9 269 13.4
2004-05-17 07:38:18 51°18.492 2°50.792 279.4 8.2 263 13.4
2004-05-17 07:38:24 51°18.489 2°50.77 271.4 8.5 259 13.5
2004-05-17 07:38:28 51°18.485 2°50.755 264.2 9 250 13.6
2004-05-17 07:38:32 51°18.481 2°50.74 257.4 9.2 246 13.7
2004-05-17 07:38:38 51°18.473 2°50.717 253.5 9.4 244 13.6
2004-05-17 07:38:44 51°18.465 2°50.695 248.5 9.7 241 13.6
2004-05-17 07:38:48 51°18.459 2°50.679 246 10.1 239 13.6
2004-05-17 07:38:53 51°18.451 2°50.661 243.8 10.3 237 13.6
2004-05-17 07:38:58 51°18.443 2°50.642 242.4 10.4 235 13.6
2004-05-17 07:39:04 51°18.432 2°50.621 240.4 10.4 232 13.6
2004-05-17 07:39:08 51°18.424 2°50.608 235.8 10.4 226 13.4
2004-05-17 07:39:13 51°18.413 2°50.593 228.4 10.4 221 13.6
2004-05-17 07:39:18 51°18.401 2°50.579 222.5 10.4 218 13.6
2004-05-17 07:39:24 51°18.386 2°50.565 216.7 10.4 215 13.6
2004-05-17 07:39:29 51°18.373 2°50.554 211.9 10.6 209 13.5
2004-05-17 07:39:34 51°18.36 2°50.544 208.9 10.6 207 13.4
2004-05-17 07:39:38 51°18.349 2°50.537 205.7 10.6 203 13.4
2004-05-17 07:39:44 51°18.333 2°50.528 203 10.7 202 13.5
2004-05-17 07:39:48 51°18.321 2°50.523 199.5 10.5 196 13.5
2004-05-17 07:39:53 51°18.307 2°50.518 194.5 10.6 192 13.5
2004-05-17 07:39:58 51°18.293 2°50.513 189.9 10.7 191 13.4
2004-05-17 07:40:04 51°18.275 2°50.509 187.6 10.7 190 13.3
2004-05-17 07:40:08 51°18.263 2°50.505 187.1 10.8 191 13.3
2004-05-17 07:40:14 51°18.245 2°50.501 186.9 10.8 189 13
2004-05-17 07:40:18 51°18.233 2°50.496 188.2 11 191 13.2
2004-05-17 07:40:22 51°18.222 2°50.492 191 11 193 13.1
2004-05-17 07:40:28 51°18.204 2°50.484 192.8 11.2 194 13.1
2004-05-17 07:40:34 51°18.185 2°50.476 193.7 11.6 194 13.1
2004-05-17 07:40:38 51°18.171 2°50.471 193.7 12.3 193 13.1
2004-05-17 07:40:44 51°18.15 2°50.464 192.8 12.8 192 12.9
2004-05-17 07:40:53 51°18.117 2°50.455 189.8 13.6 189 12.7
2004-05-17 07:41:00 51°18.09 2°50.45 187.7 13.8 187 12.7
2004-05-17 07:41:05 51°18.07 2°50.445 187.2 14.2 188 12.6
2004-05-17 07:41:09 51°18.054 2°50.442 187.2 14.3 188 12.4
2004-05-17 07:41:14 51°18.035 2°50.436 188.2 14.4 191 12.6
2004-05-17 07:41:19 51°18.015 2°50.427 191.7 14.5 192 12.4
2004-05-17 07:41:24 51°17.996 2°50.417 195.9 14.6 199 12.4
2004-05-17 07:41:29 51°17.977 2°50.405 199.1 14.7 201 12.3
2004-05-17 07:41:34 51°17.959 2°50.391 203.5 14.8 204 12.4
2004-05-17 07:41:40 51°17.936 2°50.376 205.1 14.8 204 12.3
2004-05-17 07:41:44 51°17.921 2°50.366 204.9 14.7 202 12.3
2004-05-17 07:41:48 51°17.906 2°50.358 203.6 14.7 200 12.3
2004-05-17 07:41:52 51°17.89 2°50.349 201.2 14.7 200 12.2
2004-05-17 07:41:58 51°17.867 2°50.336 200.6 14.8 200 12.2
2004-05-17 07:42:05 51°17.84 2°50.32 200.9 15 200 12
2004-05-17 07:42:08 51°17.828 2°50.314 201.1 15 198 12.1
2004-05-17 07:42:13 51°17.808 2°50.304 199.5 14.9 198 12.2
2004-05-17 07:42:20 51°17.78 2°50.293 198.1 14.6 195 12.2
2004-05-17 07:42:24 51°17.765 2°50.286 195.3 14.7 194 12.2
2004-05-17 07:42:29 51°17.745 2°50.279 194.1 14.9 194 11.8
2004-05-17 07:42:34 51°17.724 2°50.27 194.5 15 194 11.9
2004-05-17 07:42:39 51°17.705 2°50.261 196.1 14.9 196 11.9
2004-05-17 07:42:44 51°17.685 2°50.251 197.4 14.7 196 11.8
2004-05-17 07:42:50 51°17.662 2°50.241 197 14.7 195 11.8
2004-05-17 07:42:54 51°17.646 2°50.235 196.3 14.8 195 11.8
2004-05-17 07:43:00 51°17.622 2°50.225 195.9 14.7 195 11.6
2004-05-17 07:43:04 51°17.606 2°50.218 195.5 14.8 194 11.7
2004-05-17 07:43:08 51°17.59 2°50.212 194.9 14.9 194 11.6
2004-05-17 07:43:14 51°17.566 2°50.202 195.1 14.9 194 11.7
2004-05-17 07:43:20 51°17.542 2°50.192 195.2 14.8 195 11.6
2004-05-17 07:43:24 51°17.526 2°50.185 195.5 14.7 195 11.4
2004-05-17 07:43:28 51°17.511 2°50.179 195.7 14.7 194 11.4
2004-05-17 07:43:33 51°17.491 2°50.171 195.6 14.7 194 11.4
2004-05-17 07:43:40 51°17.463 2°50.16 195.2 14.8 194 11.3
2004-05-17 07:43:44 51°17.447 2°50.154 195.1 14.8 194 10.8
2004-05-17 07:43:49 51°17.427 2°50.146 195.1 14.7 194 10.3
2004-05-17 07:43:54 51°17.408 2°50.139 194.8 14.7 193 10.3
2004-05-17 07:44:00 51°17.384 2°50.129 194.5 14.7 193 10.4
2004-05-17 07:44:05 51°17.364 2°50.121 194.8 14.7 194 10.4
2004-05-17 07:44:09 51°17.348 2°50.114 195.3 14.6 195 9.9
2004-05-17 07:44:14 51°17.329 2°50.105 196.7 14.6 196 10.2
2004-05-17 07:44:20 51°17.306 2°50.093 197.9 14.7 197 9.8
2004-05-17 07:44:24 51°17.291 2°50.084 200.3 14.7 200 10.1
2004-05-17 07:44:28 51°17.275 2°50.076 201.5 14.6 199 10.1
2004-05-17 07:44:32 51°17.26 2°50.067 200.9 14.6 198 8.8
2004-05-17 07:44:38 51°17.237 2°50.056 200.3 14.6 197 10
2004-05-17 07:44:44 51°17.213 2°50.045 198.6 14.5 196 10.2
2004-05-17 07:44:48 51°17.198 2°50.037 198.2 14.6 197 9.6
2004-05-17 07:44:54 51°17.175 2°50.025 199.1 14.6 199 9.6
2004-05-17 07:45:00 51°17.152 2°50.011 201 14.7 201 9.7
2004-05-17 07:45:05 51°17.134 2°49.999 203.3 14.8 202 9.1
2004-05-17 07:45:10 51°17.115 2°49.986 204.7 14.8 203 8.1
2004-05-17 07:45:14 51°17.1 2°49.976 205.7 14.5 203 8.8
2004-05-17 07:45:20 51°17.078 2°49.961 206.1 14.4 203 9
2004-05-17 07:45:25 51°17.059 2°49.949 206 14.4 203 9.4
2004-05-17 07:45:30 51°17.041 2°49.936 205.7 14.6 203 8.6
2004-05-17 07:45:35 51°17.022 2°49.923 205.4 14.9 203 9.2
2004-05-17 07:45:40 51°17.003 2°49.91 205.5 14.8 203 8.1
2004-05-17 07:45:45 51°16.985 2°49.895 207.3 14.6 206 8.6
2004-05-17 07:45:49 51°16.971 2°49.882 209.4 14.5 209 8.8
2004-05-17 07:45:54 51°16.954 2°49.865 212.7 14.5 212 9.1
2004-05-17 07:45:58 51°16.941 2°49.85 216.2 14.6 213 9.1
2004-05-17 07:46:04 51°16.921 2°49.827 218.5 14.8 215 9.2
2004-05-17 07:46:09 51°16.904 2°49.809 219.7 14.7 215 9
2004-05-17 07:46:14 51°16.887 2°49.791 219.5 14.7 214 9.8
2004-05-17 07:46:19 51°16.87 2°49.772 218.3 14.8 214 10.4
2004-05-17 07:46:24 51°16.852 2°49.754 217.6 15.1 213 10.3
2004-05-17 07:46:30 51°16.831 2°49.733 216.9 15 212 9.7
2004-05-17 07:46:34 51°16.817 2°49.719 216.1 14.9 213 11.3
2004-05-17 07:46:39 51°16.8 2°49.701 216.1 15 213 10.7
2004-05-17 07:46:44 51°16.782 2°49.682 216.6 15.1 215 11
2004-05-17 07:46:48 51°16.769 2°49.666 217.8 15.1 216 11.1
2004-05-17 07:46:54 51°16.749 2°49.642 219.8 15 218 12.5
2004-05-17 07:47:00 51°16.729 2°49.617 221.9 15.1 218 10.7
2004-05-17 07:47:04 51°16.716 2°49.6 222.8 15.2 220 11.4
2004-05-17 07:47:09 51°16.7 2°49.579 223.5 15 218 12.2
2004-05-17 07:47:14 51°16.684 2°49.56 222.5 14.9 217 13.2
2004-05-17 07:47:20 51°16.663 2°49.538 220.2 14.8 215 12
2004-05-17 07:47:24 51°16.649 2°49.524 217.4 15.1 212 12.5
2004-05-17 07:47:28 51°16.635 2°49.509 215.9 15.1 213 13.4
2004-05-17 07:47:34 51°16.614 2°49.487 216.2 15 214 13.7
2004-05-17 07:47:39 51°16.597 2°49.468 216.9 15 214 14
2004-05-17 07:47:45 51°16.576 2°49.445 218 15 215 14.3
2004-05-17 07:47:49 51°16.562 2°49.43 218.5 15 214 14.5
2004-05-17 07:47:54 51°16.545 2°49.412 217.7 15 214 14.5
2004-05-17 07:48:00 51°16.524 2°49.391 216.1 15 212 14.6
2004-05-17 07:48:05 51°16.506 2°49.373 215.4 15 212 14.5
2004-05-17 07:48:09 51°16.492 2°49.359 215.3 14.9 212 14.4
2004-05-17 07:48:14 51°16.475 2°49.341 214.7 15.1 213 14.3
2004-05-17 07:48:20 51°16.454 2°49.318 215.8 15.1 215 14.2